Time,TemperatureF,DewpointF,PressureIn,WindDirection,WindDirectionDegrees,WindSpeedMPH,WindSpeedGustMPH,Humidity,HourlyPrecipIn,Conditions,Clouds,dailyrainin,SoftwareType,DateUTC
2013-08-27 00:18:00,73.0,70.0,29.96,WNW,290,0.0,0.0,91,0.00,,,0.00,,2013-08-27 04:18:00,
2013-08-27 00:47:00,73.0,71.0,29.96,WNW,290,0.0,0.0,92,0.00,,,0.00,,2013-08-27 04:47:00,
2013-08-27 00:54:00,73.0,71.0,29.96,WNW,290,0.0,0.0,92,0.00,,,0.00,,2013-08-27 04:54:00,
2013-08-27 01:23:00,73.0,71.0,29.95,WNW,290,0.0,0.0,93,0.00,,,0.00,,2013-08-27 05:23:00,
2013-08-27 01:52:00,73.0,71.0,29.94,WNW,290,0.0,0.0,93,0.00,,,0.00,,2013-08-27 05:52:00,
2013-08-27 02:12:00,73.0,71.0,29.94,WNW,290,0.0,0.0,94,0.00,,,0.00,,2013-08-27 06:12:00,
2013-08-27 02:22:00,73.0,71.0,29.94,WNW,290,0.0,0.0,94,0.00,,,0.00,,2013-08-27 06:22:00,
2013-08-27 02:42:00,73.0,71.0,29.94,WNW,290,0.0,0.0,94,0.00,,,0.00,,2013-08-27 06:42:00,
2013-08-27 02:52:00,73.0,71.0,29.94,WNW,290,0.0,0.0,94,0.00,,,0.00,,2013-08-27 06:52:00,
2013-08-27 03:12:00,74.0,72.0,29.93,WNW,290,0.0,2.0,95,0.00,,,0.00,,2013-08-27 07:12:00,
2013-08-27 03:22:00,74.0,72.0,29.93,WNW,290,0.0,1.0,94,0.00,,,0.00,,2013-08-27 07:22:00,
2013-08-27 03:52:00,75.0,73.0,29.91,WNW,290,0.0,1.0,92,0.00,,,0.00,,2013-08-27 07:52:00,
2013-08-27 04:12:00,75.0,73.0,29.91,WNW,290,0.0,1.0,92,0.00,,,0.00,,2013-08-27 08:12:00,
2013-08-27 04:22:00,75.0,73.0,29.92,WNW,290,0.0,2.0,92,0.00,,,0.00,,2013-08-27 08:22:00,
2013-08-27 04:42:00,75.0,72.0,29.93,WNW,290,1.0,5.0,91,0.00,,,0.00,,2013-08-27 08:42:00,
2013-08-27 04:52:00,75.0,73.0,29.93,WNW,302,3.0,7.0,93,0.16,,,0.16,,2013-08-27 08:52:00,
2013-08-27 05:11:00,75.0,73.0,29.95,NE,54,0.0,7.0,94,0.24,,,0.24,,2013-08-27 09:11:00,
2013-08-27 05:21:00,75.0,73.0,29.97,ENE,60,4.0,7.0,94,0.24,,,0.24,,2013-08-27 09:21:00,
2013-08-27 05:54:00,73.0,71.0,29.98,East,85,1.0,7.0,93,0.11,,,0.27,,2013-08-27 09:54:00,
2013-08-27 06:14:00,73.0,71.0,29.98,NE,55,0.0,0.0,94,0.07,,,0.31,,2013-08-27 10:14:00,
2013-08-27 06:25:00,72.0,70.0,29.96,ESE,120,2.0,4.0,94,0.12,,,0.36,,2013-08-27 10:25:00,
2013-08-27 06:43:00,72.0,70.0,29.96,ESE,120,0.0,1.0,95,0.11,,,0.37,,2013-08-27 10:43:00,
2013-08-27 06:53:00,72.0,70.0,29.96,ESE,120,0.0,1.0,95,0.11,,,0.38,,2013-08-27 10:53:00,
2013-08-27 07:12:00,72.0,70.0,29.96,ESE,120,0.0,1.0,95,0.07,,,0.38,,2013-08-27 11:12:00,
2013-08-27 07:22:00,71.0,69.0,29.97,ESE,120,0.0,0.0,95,0.02,,,0.38,,2013-08-27 11:22:00,
2013-08-27 07:42:00,71.0,70.0,29.96,ESE,120,0.0,1.0,96,0.02,,,0.39,,2013-08-27 11:42:00,
2013-08-27 07:52:00,71.0,70.0,29.96,ESE,120,0.0,0.0,96,0.01,,,0.39,,2013-08-27 11:52:00,
2013-08-27 08:12:00,71.0,70.0,29.94,ESE,120,0.0,4.0,96,0.01,,,0.39,,2013-08-27 12:12:00,
2013-08-27 08:22:00,71.0,70.0,29.94,ESE,120,0.0,1.0,96,0.01,,,0.39,,2013-08-27 12:22:00,
2013-08-27 08:42:00,71.0,70.0,29.94,ESE,120,0.0,0.0,96,0.00,,,0.39,,2013-08-27 12:42:00,
2013-08-27 08:52:00,71.0,70.0,29.93,ESE,120,0.0,0.0,97,0.00,,,0.39,,2013-08-27 12:52:00,
2013-08-27 09:11:00,71.0,70.0,29.93,ESE,120,0.0,0.0,97,0.01,,,0.40,,2013-08-27 13:11:00,
2013-08-27 09:22:00,72.0,71.0,29.93,ESE,120,0.0,0.0,97,0.01,,,0.40,,2013-08-27 13:22:00,
2013-08-27 09:42:00,72.0,71.0,29.93,ESE,120,0.0,0.0,97,0.01,,,0.40,,2013-08-27 13:42:00,
2013-08-27 09:52:00,72.0,71.0,29.93,ESE,120,0.0,1.0,97,0.01,,,0.40,,2013-08-27 13:52:00,
2013-08-27 10:11:00,72.0,71.0,29.94,ESE,120,0.0,1.0,97,0.00,,,0.40,,2013-08-27 14:11:00,
2013-08-27 10:22:00,73.0,72.0,29.93,SW,236,0.0,5.0,96,0.00,,,0.40,,2013-08-27 14:22:00,
2013-08-27 10:42:00,73.0,71.0,29.93,WSW,244,0.0,5.0,95,0.00,,,0.40,,2013-08-27 14:42:00,
2013-08-27 10:53:00,74.0,72.0,29.93,WSW,256,1.0,3.0,94,0.00,,,0.40,,2013-08-27 14:53:00,
2013-08-27 11:11:00,75.0,73.0,29.93,SW,228,0.0,4.0,93,0.00,,,0.40,,2013-08-27 15:11:00,
2013-08-27 11:22:00,75.0,72.0,29.93,WSW,238,0.0,3.0,91,0.00,,,0.40,,2013-08-27 15:22:00,
2013-08-27 11:45:00,76.0,73.0,29.92,WSW,240,0.0,5.0,90,0.00,,,0.40,,2013-08-27 15:45:00,
2013-08-27 11:58:00,77.0,74.0,29.92,West,270,0.0,1.0,89,0.00,,,0.40,,2013-08-27 15:58:00,
2013-08-27 12:17:00,77.0,74.0,29.93,West,268,0.0,3.0,89,0.00,,,0.40,,2013-08-27 16:17:00,
2013-08-27 12:28:00,78.0,74.0,29.92,West,268,0.0,1.0,88,0.00,,,0.40,,2013-08-27 16:28:00,
2013-08-27 12:55:00,79.0,75.0,29.91,WSW,253,2.0,5.0,87,0.00,,,0.40,,2013-08-27 16:55:00,
2013-08-27 13:13:00,79.0,75.0,29.91,WSW,253,0.0,1.0,88,0.00,,,0.40,,2013-08-27 17:13:00,
2013-08-27 13:23:00,79.0,75.0,29.91,WSW,254,0.0,1.0,88,0.00,,,0.40,,2013-08-27 17:23:00,
2013-08-27 13:52:00,80.0,76.0,29.90,WSW,252,0.0,5.0,88,0.00,,,0.40,,2013-08-27 17:52:00,
2013-08-27 14:12:00,81.0,76.0,29.90,NNW,332,3.0,8.0,84,0.00,,,0.40,,2013-08-27 18:12:00,
2013-08-27 14:22:00,82.0,75.0,29.89,NNE,21,2.0,11.0,79,0.00,,,0.40,,2013-08-27 18:22:00,
2013-08-27 14:53:00,83.0,75.0,29.87,WSW,240,1.0,10.0,77,0.00,,,0.40,,2013-08-27 18:53:00,
2013-08-27 15:12:00,84.0,75.0,29.87,West,279,7.0,12.0,75,0.00,,,0.40,,2013-08-27 19:12:00,
2013-08-27 15:22:00,84.0,75.0,29.86,NNE,20,3.0,11.0,75,0.00,,,0.40,,2013-08-27 19:22:00,
2013-08-27 15:52:00,85.0,75.0,29.84,WSW,256,2.0,17.0,72,0.00,,,0.40,,2013-08-27 19:52:00,
2013-08-27 16:12:00,86.0,75.0,29.84,WSW,240,9.0,14.0,70,0.00,,,0.40,,2013-08-27 20:12:00,